createdAt,value
2023-02-18T09:55:30.918Z,98176.84
2023-02-18T09:57:42.188Z,98174.19
2023-02-18T09:59:45.407Z,98176.16
2023-02-18T10:01:52.133Z,98174.22
2023-02-18T10:03:56.246Z,98174.84
2023-02-18T10:06:03.403Z,98170.00
2023-02-18T10:08:08.149Z,98167.16
2023-02-18T10:10:17.879Z,98161.81
2023-02-18T10:12:24.850Z,98162.63
2023-02-18T10:14:28.189Z,98166.06
2023-02-18T10:16:32.288Z,98160.78
2023-02-18T10:18:42.026Z,98158.13
2023-02-18T10:20:45.218Z,98161.88
2023-02-18T10:22:48.218Z,98165.69
2023-02-18T10:24:53.934Z,98163.50
2023-02-18T10:26:57.126Z,98162.97
2023-02-18T10:29:01.335Z,98152.31
2023-02-18T10:31:11.004Z,98160.63
2023-02-18T10:33:28.807Z,98156.78
2023-02-18T10:35:39.131Z,98157.25
2023-02-18T10:38:03.122Z,98159.25
2023-02-18T10:40:14.315Z,98166.84
2023-02-18T10:42:34.513Z,98169.00
2023-02-18T10:44:49.988Z,98163.81
2023-02-18T10:47:03.601Z,98165.13
2023-02-18T10:49:28.570Z,98163.13
2023-02-18T10:51:35.086Z,98172.41
2023-02-18T10:53:41.528Z,98163.44
2023-02-18T10:55:45.969Z,98166.59
2023-02-18T10:57:51.603Z,98159.91
2023-02-18T11:00:16.233Z,98151.75
2023-02-18T11:02:20.226Z,98152.41
2023-02-18T11:04:27.658Z,98147.91
2023-02-18T11:06:34.995Z,98151.06
2023-02-18T11:08:44.741Z,98152.53
2023-02-18T11:10:50.345Z,98155.69
2023-02-18T11:12:58.994Z,98152.41
2023-02-18T11:15:21.165Z,98160.84
2023-02-18T11:17:29.317Z,98163.16
2023-02-18T11:19:34.682Z,98168.47
2023-02-18T11:21:39.459Z,98162.97
2023-02-18T11:23:49.053Z,98167.28
2023-02-18T11:25:59.593Z,98154.63
2023-02-18T11:28:05.645Z,98157.94
2023-02-18T11:30:20.983Z,98146.31
2023-02-18T11:32:28.202Z,98140.16
2023-02-18T11:34:33.681Z,98139.19
2023-02-18T11:36:38.655Z,98126.06
2023-02-18T11:38:46.506Z,98134.03
2023-02-18T11:40:56.422Z,98129.72
2023-02-18T11:43:08.797Z,98133.38
2023-02-18T11:45:27.958Z,98121.56
2023-02-18T11:47:35.160Z,98117.75
2023-02-18T11:49:38.087Z,98107.75
2023-02-18T11:51:41.778Z,98110.06
2023-02-18T11:53:59.586Z,98106.22
2023-02-18T11:56:04.095Z,98108.34
2023-02-18T11:58:08.579Z,98095.69
2023-02-18T12:00:22.318Z,98102.47
2023-02-18T12:02:33.810Z,98094.13
2023-02-18T12:04:42.728Z,98090.13
2023-02-18T12:06:53.426Z,98089.75
2023-02-18T12:09:01.934Z,98094.50
2023-02-18T12:11:10.876Z,98092.34
2023-02-18T12:13:27.539Z,98080.69
2023-02-18T12:15:42.506Z,98080.50
2023-02-18T12:18:02.565Z,98081.16
2023-02-18T12:20:34.608Z,98071.53
2023-02-18T12:22:44.152Z,98075.56
2023-02-18T12:25:01.067Z,98065.13
2023-02-18T12:27:13.599Z,98061.44
2023-02-18T12:29:37.660Z,98061.63
2023-02-18T12:32:03.556Z,98059.50
2023-02-18T12:34:23.159Z,98058.41
2023-02-18T12:36:42.029Z,98053.56
2023-02-18T12:39:13.386Z,98049.31
2023-02-18T12:41:29.451Z,98044.31
2023-02-18T12:43:43.334Z,98040.25
2023-02-18T12:46:09.681Z,98036.25
2023-02-18T12:48:34.119Z,98028.72
2023-02-18T12:50:49.347Z,98029.78
2023-02-18T12:53:06.312Z,98024.75
2023-02-18T12:55:43.022Z,98024.00
2023-02-18T12:57:51.142Z,98018.16
2023-02-18T13:00:36.145Z,98013.28
2023-02-18T13:02:58.122Z,98006.59
2023-02-18T13:05:08.261Z,98000.25
2023-02-18T13:07:41.220Z,98003.34
2023-02-18T13:10:12.257Z,97989.03
2023-02-18T13:12:22.225Z,97994.81
2023-02-18T13:14:29.353Z,97989.13
2023-02-18T13:16:33.862Z,97989.56
2023-02-18T13:18:40.263Z,97990.22
2023-02-18T13:20:48.634Z,97980.03
2023-02-18T13:22:53.361Z,97977.00
2023-02-18T13:24:59.591Z,97972.31
2023-02-18T13:27:14.454Z,97966.16
2023-02-18T13:29:24.220Z,97968.84
2023-02-18T13:31:40.826Z,97963.13
2023-02-18T13:33:52.535Z,97964.97
2023-02-18T13:36:01.593Z,97959.88
2023-02-18T13:38:34.813Z,97951.72
2023-02-18T13:40:38.469Z,97951.53
2023-02-18T13:42:41.437Z,97949.69
2023-02-18T13:45:22.993Z,97944.19
2023-02-18T13:47:40.360Z,97942.16
2023-02-18T13:49:43.261Z,97938.66
2023-02-18T13:51:49.354Z,97939.47
2023-02-18T13:53:53.436Z,97932.13
2023-02-18T13:56:01.630Z,97931.78
2023-02-18T13:58:04.786Z,97923.78
2023-02-18T14:00:20.951Z,97914.13
2023-02-18T14:02:35.729Z,97915.78
2023-02-18T14:04:51.801Z,97910.09
2023-02-18T14:07:27.468Z,97910.09
2023-02-18T14:09:39.869Z,97904.75
2023-02-18T14:11:50.874Z,97898.22
2023-02-18T14:13:56.154Z,97908.03
2023-02-18T14:16:01.932Z,97902.72
2023-02-18T14:18:27.983Z,97905.00
2023-02-18T14:20:47.973Z,97899.66
2023-02-18T14:22:53.536Z,97900.28
2023-02-18T14:25:01.352Z,97899.47
2023-02-18T14:27:16.097Z,97888.81
2023-02-18T14:29:27.008Z,97893.31
2023-02-18T14:31:42.759Z,97896.63
2023-02-18T14:33:56.226Z,97884.31
2023-02-18T14:36:10.466Z,97882.31
2023-02-18T14:38:32.207Z,97881.28
2023-02-18T14:41:01.762Z,97873.94
2023-02-18T14:43:13.851Z,97881.09
2023-02-18T14:45:21.102Z,97869.63
2023-02-18T14:47:36.745Z,97874.94
2023-02-18T14:49:44.305Z,97867.97
2023-02-18T14:51:48.969Z,97873.94
2023-02-18T14:53:53.929Z,97866.75
2023-02-18T14:56:02.276Z,97861.25
2023-02-18T14:58:07.754Z,97856.13
2023-02-18T15:00:17.928Z,97856.31
2023-02-18T15:02:23.646Z,97849.97
2023-02-18T15:04:27.109Z,97852.81
2023-02-18T15:06:32.064Z,97848.31
2023-02-18T15:08:40.064Z,97842.19
2023-02-18T15:10:47.505Z,97844.84
2023-02-18T15:12:50.433Z,97836.84
2023-02-18T15:14:56.995Z,97831.34
2023-02-18T15:17:00.854Z,97829.69
2023-02-18T15:19:06.728Z,97834.00
2023-02-18T15:21:17.795Z,97836.47
2023-02-18T15:23:20.910Z,97831.94
2023-02-18T15:25:23.790Z,97826.63
2023-02-18T15:27:30.547Z,97828.28
2023-02-18T15:29:35.872Z,97817.63
2023-02-18T15:31:40.520Z,97821.50
2023-02-18T15:33:44.718Z,97826.00
2023-02-18T15:35:47.513Z,97810.22
2023-02-18T15:37:54.621Z,97810.22
2023-02-18T15:39:57.980Z,97805.53
2023-02-18T15:42:04.011Z,97799.19
2023-02-18T15:44:09.349Z,97798.38
2023-02-18T15:46:15.265Z,97796.31
2023-02-18T15:48:28.228Z,97794.69
2023-02-18T15:50:34.342Z,97796.72
2023-02-18T15:52:39.921Z,97793.03
2023-02-18T15:54:43.779Z,97788.53
2023-02-18T15:56:50.664Z,97793.84
2023-02-18T15:58:58.193Z,97793.66
2023-02-18T16:01:04.889Z,97794.69
2023-02-18T16:03:14.459Z,97797.13
2023-02-18T16:05:17.509Z,97796.31
2023-02-18T16:07:29.521Z,97790.19
2023-02-18T16:09:35.005Z,97784.84
2023-02-18T16:11:42.332Z,97778.50
2023-02-18T16:13:47.726Z,97782.00
2023-02-18T16:15:52.208Z,97784.44
2023-02-18T16:17:58.847Z,97785.28
2023-02-18T16:20:05.781Z,97786.28
2023-02-18T16:22:24.483Z,97777.69
2023-02-18T16:24:30.042Z,97784.03
2023-02-18T16:26:42.440Z,97776.03
2023-02-18T16:28:46.952Z,97773.38
2023-02-18T16:30:49.713Z,97778.72
2023-02-18T16:32:52.557Z,97773.59
2023-02-18T16:34:56.895Z,97776.44
2023-02-18T16:37:17.059Z,97778.28
2023-02-18T16:39:19.747Z,97775.81
2023-02-18T16:41:22.771Z,97777.84
2023-02-18T16:43:32.658Z,97776.19
2023-02-18T16:45:37.796Z,97777.47
2023-02-18T16:47:40.906Z,97770.09
2023-02-18T16:49:46.580Z,97770.72
2023-02-18T16:51:50.767Z,97773.19
2023-02-18T16:53:53.669Z,97769.69
2023-02-18T16:55:57.191Z,97768.06
2023-02-18T16:58:00.053Z,97770.91
2023-02-18T17:00:03.603Z,97772.13
2023-02-18T17:02:10.321Z,97771.53
2023-02-18T17:04:16.193Z,97769.22
2023-02-18T17:06:19.249Z,97768.41
2023-02-18T17:08:25.472Z,97772.28
2023-02-18T17:10:28.303Z,97768.00
2023-02-18T17:12:31.182Z,97767.38
2023-02-18T17:14:34.563Z,97774.72
2023-02-18T17:16:37.443Z,97771.63
2023-02-18T17:18:41.016Z,97773.44
2023-02-18T17:20:43.961Z,97772.00
2023-02-18T17:22:46.876Z,97777.53
2023-02-18T17:24:51.035Z,97767.28
2023-02-18T17:26:53.899Z,97772.59
2023-02-18T17:28:58.938Z,97783.41
2023-02-18T17:31:01.756Z,97790.78
2023-02-18T17:33:05.520Z,97796.31
2023-02-18T17:35:08.611Z,97794.66
2023-02-18T17:37:13.704Z,97788.72
2023-02-18T17:39:18.378Z,97788.09
2023-02-18T17:41:22.764Z,97785.63
2023-02-18T17:43:25.865Z,97787.63
2023-02-18T17:45:31.930Z,97786.00
2023-02-18T17:47:35.024Z,97788.84
2023-02-18T17:49:37.877Z,97776.72
2023-02-18T17:51:40.718Z,97783.88
2023-02-18T17:53:43.600Z,97790.22
2023-02-18T17:55:48.224Z,97791.25
2023-02-18T17:57:53.708Z,97782.44
2023-02-18T17:59:58.324Z,97794.09
2023-02-18T18:02:03.424Z,97797.59
2023-02-18T18:04:11.682Z,97797.59
2023-02-18T18:06:17.744Z,97793.25
2023-02-18T18:08:20.895Z,97790.59
2023-02-18T18:10:28.576Z,97796.78
2023-02-18T18:12:32.195Z,97795.09
2023-02-18T18:14:36.371Z,97799.59
2023-02-18T18:16:39.188Z,97797.75
2023-02-18T18:18:42.272Z,97806.56
2023-02-18T18:20:47.371Z,97796.78
2023-02-18T18:22:50.721Z,97804.56
2023-02-18T18:24:53.600Z,97807.22
2023-02-18T18:26:56.422Z,97803.72
2023-02-18T18:28:59.346Z,97804.56
2023-02-18T18:31:03.795Z,97796.78
2023-02-18T18:33:15.445Z,97803.91
2023-02-18T18:35:24.845Z,97800.41
2023-02-18T18:37:27.545Z,97801.22
2023-02-18T18:39:30.285Z,97803.06
2023-02-18T18:41:33.095Z,97797.94
2023-02-18T18:43:38.748Z,97798.97
2023-02-18T18:45:41.670Z,97803.66
2023-02-18T18:47:45.938Z,97800.78
2023-02-18T18:49:48.956Z,97809.75
2023-02-18T18:51:51.811Z,97810.94
2023-02-18T18:53:54.568Z,97810.50
2023-02-18T18:55:58.906Z,97806.41
2023-02-18T18:58:02.394Z,97807.63
2023-02-18T19:00:05.758Z,97811.66
2023-02-18T19:02:16.965Z,97815.91
2023-02-18T19:04:21.112Z,97816.09
2023-02-18T19:06:23.963Z,97814.81
2023-02-18T19:08:27.406Z,97810.91
2023-02-18T19:10:31.804Z,97813.56
2023-02-18T19:12:34.556Z,97813.56
2023-02-18T19:14:37.340Z,97815.59
2023-02-18T19:16:43.231Z,97822.09
2023-02-18T19:18:46.091Z,97815.13
2023-02-18T19:20:50.300Z,97816.34
2023-02-18T19:22:53.245Z,97813.06
2023-02-18T19:24:56.023Z,97813.06
2023-02-18T19:26:58.821Z,97820.41
2023-02-18T19:29:01.572Z,97818.75
2023-02-18T19:31:09.341Z,97816.09
2023-02-18T19:33:15.086Z,97817.13
2023-02-18T19:35:18.214Z,97809.31
2023-02-18T19:37:23.415Z,97809.13
2023-02-18T19:39:26.339Z,97820.75
2023-02-18T19:41:29.117Z,97813.78
2023-02-18T19:43:31.897Z,97817.47
2023-02-18T19:45:35.346Z,97817.66
2023-02-18T19:47:38.475Z,97817.84
2023-02-18T19:49:41.243Z,97818.66
2023-02-18T19:51:44.029Z,97818.88
2023-02-18T19:53:48.515Z,97817.84
2023-02-18T19:55:58.193Z,97824.19
2023-02-18T19:58:01.477Z,97820.50
2023-02-18T20:00:05.404Z,97826.66
2023-02-18T20:02:08.377Z,97818.66
2023-02-18T20:04:11.232Z,97823.16
2023-02-18T20:06:18.398Z,97827.47
2023-02-18T20:08:21.306Z,97825.63
2023-02-18T20:10:25.704Z,97824.81
2023-02-18T20:12:28.437Z,97828.28
2023-02-18T20:14:31.197Z,97824.81
2023-02-18T20:16:34.045Z,97824.19
2023-02-18T20:18:37.628Z,97829.31
2023-02-18T20:20:40.368Z,97831.13
2023-02-18T20:22:43.120Z,97830.88
2023-02-18T20:24:45.906Z,97819.59
2023-02-18T20:26:50.318Z,97826.94
2023-02-18T20:28:53.404Z,97829.97
2023-02-18T20:31:05.269Z,97831.38
2023-02-18T20:33:08.129Z,97824.56
2023-02-18T20:35:11.046Z,97823.75
2023-02-18T20:37:13.796Z,97824.78
2023-02-18T20:39:18.313Z,97824.97
2023-02-18T20:41:22.715Z,97825.34
2023-02-18T20:43:27.062Z,97833.50
2023-02-18T20:45:29.815Z,97838.81
2023-02-18T20:47:32.754Z,97836.50
2023-02-18T20:49:36.078Z,97833.22
2023-02-18T20:51:40.481Z,97838.72
2023-02-18T20:53:45.031Z,97837.25
2023-02-18T20:55:48.326Z,97839.28
2023-02-18T20:57:51.228Z,97835.00
2023-02-18T20:59:55.892Z,97835.16
2023-02-18T21:01:58.668Z,97836.34
2023-02-18T21:04:01.747Z,97833.88
2023-02-18T21:06:07.396Z,97840.59
2023-02-18T21:08:10.249Z,97839.28
2023-02-18T21:10:12.966Z,97832.50
2023-02-18T21:12:15.710Z,97837.00
2023-02-18T21:14:18.465Z,97824.72
2023-02-18T21:16:24.064Z,97830.19
2023-02-18T21:18:27.172Z,97825.75
2023-02-18T21:20:30.274Z,97828.56
2023-02-18T21:22:33.064Z,97827.75
2023-02-18T21:24:35.856Z,97826.91
2023-02-18T21:26:38.657Z,97828.56
2023-02-18T21:28:41.909Z,97819.59
2023-02-18T21:30:46.760Z,97827.41
2023-02-18T21:32:51.046Z,97828.22
2023-02-18T21:34:53.822Z,97831.16
2023-02-18T21:36:56.623Z,97829.13
2023-02-18T21:39:01.857Z,97829.78
2023-02-18T21:41:05.432Z,97830.78
2023-02-18T21:43:08.413Z,97832.81
2023-02-18T21:45:16.803Z,97828.66
2023-02-18T21:47:19.721Z,97842.75
2023-02-18T21:49:22.863Z,97833.44
2023-02-18T21:51:42.618Z,97837.72
2023-02-18T21:53:45.350Z,97847.53
2023-02-18T21:56:03.060Z,97837.09
2023-02-18T21:58:06.670Z,97842.59
2023-02-18T22:00:20.079Z,97838.47
2023-02-18T22:02:26.303Z,97847.09
2023-02-18T22:04:31.856Z,97846.44
2023-02-18T22:06:35.020Z,97843.78
2023-02-18T22:08:37.845Z,97849.06
2023-02-18T22:10:40.681Z,97839.84
2023-02-18T22:12:43.392Z,97838.34
2023-02-18T22:14:46.207Z,97847.16
2023-02-18T22:16:48.931Z,97837.53
2023-02-18T22:18:51.667Z,97844.50
2023-02-18T22:20:55.851Z,97843.66
2023-02-18T22:22:58.589Z,97850.81
2023-02-18T22:25:01.366Z,97845.69
2023-02-18T22:27:04.399Z,97851.81
2023-02-18T22:29:07.270Z,97857.94
2023-02-18T22:31:11.816Z,97859.13
2023-02-18T22:33:17.226Z,97856.47
2023-02-18T22:35:20.029Z,97859.13
2023-02-18T22:37:24.139Z,97866.09
2023-02-18T22:39:27.449Z,97863.59
2023-02-18T22:41:31.991Z,97859.13
2023-02-18T22:43:35.028Z,97872.56
2023-02-18T22:45:38.149Z,97856.66
2023-02-18T22:47:41.042Z,97859.13
2023-02-18T22:49:43.744Z,97858.13
2023-02-18T22:51:46.530Z,97856.31
2023-02-18T22:53:50.698Z,97857.94
2023-02-18T22:55:53.898Z,97851.81
2023-02-18T22:57:57.118Z,97859.78
2023-02-18T23:00:00.242Z,97854.63
2023-02-18T23:02:03.392Z,97862.78
2023-02-18T23:04:08.150Z,97857.47
2023-02-18T23:06:11.341Z,97851.53
2023-02-18T23:08:14.700Z,97851.72
2023-02-18T23:10:21.901Z,97857.84
2023-02-18T23:12:25.366Z,97862.34
2023-02-18T23:14:30.370Z,97862.34
2023-02-18T23:16:54.160Z,97859.88
2023-02-18T23:18:56.949Z,97868.66
2023-02-18T23:21:21.111Z,97861.13
2023-02-18T23:23:23.933Z,97863.59
2023-02-18T23:25:28.015Z,97861.63
2023-02-18T23:27:31.023Z,97863.25
2023-02-18T23:29:34.092Z,97866.94
2023-02-18T23:31:38.018Z,97868.56
2023-02-18T23:33:40.969Z,97869.41
2023-02-18T23:35:43.790Z,97869.41
2023-02-18T23:38:04.706Z,97870.22
2023-02-18T23:40:08.642Z,97864.91
2023-02-18T23:42:13.153Z,97871.03
2023-02-18T23:44:17.933Z,97876.34
2023-02-18T23:46:24.276Z,97873.69
2023-02-18T23:48:27.245Z,97873.06
2023-02-18T23:50:29.956Z,97873.06
2023-02-18T23:52:32.687Z,97869.75
2023-02-18T23:54:35.655Z,97867.28
2023-02-18T23:56:38.951Z,97867.66
2023-02-18T23:58:45.488Z,97869.28
